createdAt,value
2019-04-18T00:00:48.306Z,9.7
2019-04-18T00:01:48.339Z,10.5
2019-04-18T00:02:48.393Z,10.1
2019-04-18T00:03:51.508Z,10.8
2019-04-18T00:04:49.588Z,10.1
2019-04-18T00:05:48.612Z,8.8
2019-04-18T00:06:48.615Z,9.4
2019-04-18T00:07:48.712Z,10.7
2019-04-18T00:08:48.773Z,11.6
2019-04-18T00:09:48.803Z,10.6
2019-04-18T00:10:48.896Z,9.8
2019-04-18T00:11:50.543Z,10.4
2019-04-18T00:12:51.878Z,10.4
2019-04-18T00:13:50.106Z,10
2019-04-18T00:14:50.352Z,10.4
2019-04-18T00:15:53.134Z,9.7
2019-04-18T00:16:50.421Z,12.6
2019-04-18T00:17:49.492Z,11.2
2019-04-18T00:18:49.580Z,12.8
2019-04-18T00:19:49.608Z,13.1
2019-04-18T00:20:49.690Z,10.4
2019-04-18T00:21:52.659Z,12.3
2019-04-18T00:22:52.807Z,10.2
2019-04-18T00:23:50.861Z,11.4
2019-04-18T00:24:49.844Z,9.6
2019-04-18T00:25:49.947Z,10.3
2019-04-18T00:26:49.967Z,10.3
2019-04-18T00:27:49.958Z,9.4
2019-04-18T00:28:53.194Z,11.6
2019-04-18T00:29:50.999Z,11.2
2019-04-18T00:30:50.054Z,10.3
2019-04-18T00:31:50.126Z,11.6
2019-04-18T00:32:50.177Z,11.9
2019-04-18T00:33:50.748Z,12.8
2019-04-18T00:34:51.242Z,11.7
2019-04-18T00:35:50.285Z,12.7
2019-04-18T00:36:51.259Z,10.4
2019-04-18T00:37:53.078Z,10.7
2019-04-18T00:38:51.494Z,10
2019-04-18T00:39:50.580Z,11.9
2019-04-18T00:40:50.624Z,11.3
2019-04-18T00:41:50.727Z,11.4
2019-04-18T00:42:51.795Z,10.5
2019-04-18T00:43:51.918Z,11.2
2019-04-18T00:44:50.960Z,10.3
2019-04-18T00:45:50.999Z,12.5
2019-04-18T00:46:51.072Z,11.9
2019-04-18T00:47:54.539Z,13.7
2019-04-18T00:48:55.028Z,12.1
2019-04-18T00:49:52.271Z,11
2019-04-18T00:50:51.345Z,23.1
2019-04-18T00:51:51.385Z,33.700001
2019-04-18T00:52:51.455Z,52
2019-04-18T00:53:54.074Z,37.5
2019-04-18T00:54:54.967Z,22.799999
2019-04-18T00:55:52.629Z,19.799999
2019-04-18T00:56:51.712Z,13.5
2019-04-18T00:57:51.793Z,13.3
2019-04-18T00:58:52.199Z,11.9
2019-04-18T00:59:55.068Z,13.4
2019-04-18T01:00:52.992Z,12.8
2019-04-18T01:01:52.024Z,12.4
2019-04-18T01:02:52.486Z,13.7
2019-04-18T01:03:53.659Z,11.9
2019-04-18T01:04:53.231Z,12
2019-04-18T01:05:52.325Z,14.1
2019-04-18T01:06:53.191Z,11.7
2019-04-18T01:07:52.489Z,11.9
2019-04-18T01:08:52.535Z,14.7
2019-04-18T01:09:52.638Z,14.6
2019-04-18T01:10:52.704Z,14.1
2019-04-18T01:11:55.530Z,13.6
2019-04-18T01:12:53.864Z,12.9
2019-04-18T01:13:52.921Z,12.8
2019-04-18T01:14:52.982Z,15.8
2019-04-18T01:15:56.255Z,12
2019-04-18T01:16:54.108Z,13.9
2019-04-18T01:17:53.228Z,13.8
2019-04-18T01:18:53.296Z,16.299999
2019-04-18T01:19:54.930Z,15.1
2019-04-18T01:20:54.455Z,16.5
2019-04-18T01:21:53.469Z,17.700001
2019-04-18T01:22:53.529Z,16.1
2019-04-18T01:23:55.502Z,16
2019-04-18T01:24:57.108Z,17.6
2019-04-18T01:25:54.848Z,15.7
2019-04-18T01:26:53.850Z,18.299999
2019-04-18T01:27:53.796Z,16
2019-04-18T01:28:53.803Z,16.200001
2019-04-18T01:29:53.858Z,15.6
2019-04-18T01:30:53.911Z,16.1
2019-04-18T01:31:53.997Z,16.5
2019-04-18T01:32:59.934Z,14.9
2019-04-18T01:33:55.099Z,17.700001
2019-04-18T01:34:54.144Z,26.6
2019-04-18T01:35:55.698Z,29.799999
2019-04-18T01:36:57.324Z,27.700001
2019-04-18T01:37:55.332Z,22.5
2019-04-18T01:38:54.401Z,18.799999
2019-04-18T01:39:54.445Z,17.299999
2019-04-18T01:40:54.563Z,15.8
2019-04-18T01:41:56.468Z,13.9
2019-04-18T01:42:55.787Z,13.8
2019-04-18T01:43:55.768Z,13.3
2019-04-18T01:44:54.821Z,13.6
2019-04-18T01:45:54.875Z,13.8
2019-04-18T01:46:56.195Z,15
2019-04-18T01:47:57.200Z,13.9
2019-04-18T01:48:56.107Z,15.7
2019-04-18T01:49:55.225Z,14.6
2019-04-18T01:50:55.260Z,15.4
2019-04-18T01:51:55.299Z,15
2019-04-18T01:52:55.959Z,13.8
2019-04-18T01:53:56.436Z,15
2019-04-18T01:54:55.576Z,15.6
2019-04-18T01:55:55.634Z,21.1
2019-04-18T01:56:56.640Z,16.700001
2019-04-18T01:57:56.911Z,17.299999
2019-04-18T01:58:56.856Z,20.4
2019-04-18T01:59:55.938Z,19.299999
2019-04-18T02:00:55.966Z,16.5
2019-04-18T02:01:56.000Z,15
2019-04-18T02:02:59.312Z,16
2019-04-18T02:03:57.111Z,18.700001
2019-04-18T02:05:01.001Z,15.6
2019-04-18T02:05:57.210Z,15.6
2019-04-18T02:06:56.282Z,17.200001
2019-04-18T02:07:56.338Z,18.1
2019-04-18T02:08:56.373Z,17
2019-04-18T02:09:57.194Z,18.5
2019-04-18T02:10:57.663Z,17.1
2019-04-18T02:11:57.653Z,17.200001
2019-04-18T02:12:56.700Z,20.9
2019-04-18T02:13:56.760Z,22.200001
2019-04-18T02:14:58.937Z,18.4
2019-04-18T02:15:57.920Z,20.4
2019-04-18T02:16:56.974Z,19.200001
2019-04-18T02:17:57.029Z,14.9
2019-04-18T02:18:57.127Z,14.5
2019-04-18T02:20:00.550Z,17.299999
2019-04-18T02:20:58.260Z,13.6
2019-04-18T02:21:57.317Z,14.4
2019-04-18T02:22:57.370Z,14.7
2019-04-18T02:23:57.416Z,16.299999
2019-04-18T02:24:58.845Z,15.7
2019-04-18T02:25:58.586Z,16.299999
2019-04-18T02:26:57.611Z,16.1
2019-04-18T02:27:58.109Z,19
2019-04-18T02:29:00.792Z,15.5
2019-04-18T02:29:58.806Z,13.8
2019-04-18T02:30:58.046Z,15.9
2019-04-18T02:31:58.839Z,16.299999
2019-04-18T02:32:58.988Z,16
2019-04-18T02:33:58.047Z,14.7
2019-04-18T02:34:58.163Z,13.8
2019-04-18T02:35:58.589Z,17.299999
2019-04-18T02:36:58.281Z,17.200001
2019-04-18T02:37:58.342Z,18.700001
2019-04-18T02:38:58.372Z,16.4
2019-04-18T02:40:00.492Z,16.9
2019-04-18T02:41:00.313Z,17.4
2019-04-18T02:41:58.596Z,19.9
2019-04-18T02:42:58.864Z,18.5
2019-04-18T02:43:58.741Z,18.799999
2019-04-18T02:45:00.244Z,20
2019-04-18T02:46:00.364Z,19.9
2019-04-18T02:46:58.953Z,20.299999
2019-04-18T02:47:58.990Z,17.299999
2019-04-18T02:48:59.034Z,15.5
2019-04-18T02:50:01.310Z,20.9
2019-04-18T02:51:00.552Z,16.299999
2019-04-18T02:51:59.248Z,19.200001
2019-04-18T02:52:59.435Z,18.799999
2019-04-18T02:54:02.270Z,15.7
2019-04-18T02:55:00.453Z,19.200001
2019-04-18T02:55:59.487Z,15.2
2019-04-18T02:56:59.561Z,18.299999
2019-04-18T02:58:00.160Z,20.1
2019-04-18T02:59:01.076Z,20.299999
2019-04-18T02:59:59.821Z,17.799999
2019-04-18T03:00:59.868Z,16.299999
2019-04-18T03:02:00.720Z,15.9
2019-04-18T03:03:01.314Z,14.7
2019-04-18T03:04:00.076Z,14.4
2019-04-18T03:05:00.115Z,18
2019-04-18T03:06:00.207Z,15.7
2019-04-18T03:07:00.322Z,13.6
2019-04-18T03:08:00.362Z,13.8
2019-04-18T03:09:01.292Z,14.8
2019-04-18T03:10:03.498Z,14.9
2019-04-18T03:11:01.929Z,14.3
2019-04-18T03:12:02.273Z,15.5
2019-04-18T03:13:01.468Z,16
2019-04-18T03:14:07.535Z,15.6
2019-04-18T03:15:01.787Z,14.6
2019-04-18T03:16:00.816Z,14.8
2019-04-18T03:17:01.414Z,15.5
2019-04-18T03:18:02.139Z,14.8
2019-04-18T03:19:02.031Z,16.799999
2019-04-18T03:20:02.150Z,15.1
2019-04-18T03:21:01.111Z,13.7
2019-04-18T03:22:01.312Z,15.5
2019-04-18T03:23:05.610Z,15.2
2019-04-18T03:24:02.377Z,14.9
2019-04-18T03:25:01.430Z,14.8
2019-04-18T03:26:01.525Z,15.2
2019-04-18T03:27:02.712Z,14.1
2019-04-18T03:28:04.270Z,14.1
2019-04-18T03:29:03.148Z,14.9
2019-04-18T03:30:01.805Z,14.2
2019-04-18T03:31:05.758Z,15.9
2019-04-18T03:32:03.038Z,16.4
2019-04-18T03:33:03.085Z,13.6
2019-04-18T03:34:06.021Z,14.1
2019-04-18T03:35:03.320Z,15
2019-04-18T03:36:02.098Z,15.4
2019-04-18T03:37:04.980Z,15.3
2019-04-18T03:38:03.198Z,15.5
2019-04-18T03:39:03.219Z,16.200001
2019-04-18T03:40:03.521Z,13.5
2019-04-18T03:41:02.404Z,14.9
2019-04-18T03:42:02.809Z,15.1
2019-04-18T03:43:06.559Z,15.2
2019-04-18T03:44:04.205Z,14.1
2019-04-18T03:45:02.649Z,15.3
2019-04-18T03:46:02.688Z,15.4
2019-04-18T03:47:02.754Z,17.200001
2019-04-18T03:48:03.338Z,15.4
2019-04-18T03:49:04.428Z,16.1
2019-04-18T03:50:02.981Z,14.3
2019-04-18T03:51:05.696Z,15.4
2019-04-18T03:52:04.472Z,14.9
2019-04-18T03:53:03.217Z,12.5
2019-04-18T03:54:07.091Z,16.6
2019-04-18T03:55:04.643Z,16.299999
2019-04-18T03:56:03.408Z,16.299999
2019-04-18T03:57:03.423Z,14.9
2019-04-18T03:58:07.889Z,15.3
2019-04-18T03:59:04.691Z,15.8
2019-04-18T04:00:04.127Z,16.799999
2019-04-18T04:01:03.693Z,16.700001
2019-04-18T04:02:04.443Z,16.299999
2019-04-18T04:03:05.389Z,15.7
2019-04-18T04:04:04.943Z,14.6
2019-04-18T04:05:04.324Z,14.3
2019-04-18T04:06:05.255Z,17.1
2019-04-18T04:07:05.734Z,17.200001
2019-04-18T04:08:04.768Z,14.2
2019-04-18T04:09:05.596Z,15.7
2019-04-18T04:10:07.381Z,17
2019-04-18T04:11:05.269Z,17.299999
2019-04-18T04:12:04.484Z,15.8
2019-04-18T04:13:04.986Z,18
2019-04-18T04:14:05.647Z,18.200001
2019-04-18T04:15:05.438Z,16.5
2019-04-18T04:16:04.615Z,17.1
2019-04-18T04:17:05.061Z,20.200001
2019-04-18T04:18:08.535Z,15.9
2019-04-18T04:19:05.688Z,13.7
2019-04-18T04:20:04.780Z,17.5
2019-04-18T04:21:05.278Z,17.4
2019-04-18T04:22:09.074Z,18.4
2019-04-18T04:23:05.903Z,17.9
2019-04-18T04:24:05.234Z,17
2019-04-18T04:25:07.903Z,17.1
2019-04-18T04:26:06.124Z,16.1
2019-04-18T04:27:05.241Z,15.3
2019-04-18T04:28:05.277Z,16.299999
2019-04-18T04:29:05.474Z,14.4
2019-04-18T04:30:06.237Z,15.9
2019-04-18T04:31:06.655Z,14
2019-04-18T04:32:05.575Z,15.6
2019-04-18T04:33:05.747Z,13.9
2019-04-18T04:34:08.447Z,14.8
2019-04-18T04:35:06.766Z,16.4
2019-04-18T04:36:20.185Z,16
2019-04-18T04:37:07.945Z,15.8
2019-04-18T04:38:07.054Z,14.9
2019-04-18T04:39:06.089Z,17.5
2019-04-18T04:40:06.091Z,15.6
2019-04-18T04:41:06.375Z,16.6
2019-04-18T04:42:11.553Z,14.8
2019-04-18T04:43:07.872Z,15.3
2019-04-18T04:44:07.051Z,14.4
2019-04-18T04:45:06.384Z,14.4
2019-04-18T04:46:08.726Z,15.4
2019-04-18T04:47:07.956Z,16.4
2019-04-18T04:48:06.839Z,17
2019-04-18T04:49:07.082Z,15.4
2019-04-18T04:50:07.347Z,17.1
2019-04-18T04:51:08.533Z,15.6
2019-04-18T04:52:07.890Z,14
2019-04-18T04:53:06.859Z,15.7
2019-04-18T04:54:08.374Z,18.4
2019-04-18T04:55:08.058Z,15.4
2019-04-18T04:56:07.065Z,13.2
2019-04-18T04:57:07.086Z,15.9
2019-04-18T04:58:07.065Z,15.8
2019-04-18T04:59:10.465Z,15.7
2019-04-18T05:00:08.371Z,18.200001
2019-04-18T05:01:07.300Z,19.200001
2019-04-18T05:02:08.737Z,15.6
2019-04-18T05:03:13.280Z,16.1
2019-04-18T05:04:08.311Z,15.9
2019-04-18T05:05:07.715Z,14.5
2019-04-18T05:06:07.335Z,16.200001
2019-04-18T05:07:07.347Z,13.6
2019-04-18T05:08:07.555Z,16.299999
2019-04-18T05:09:07.364Z,15
2019-04-18T05:10:11.434Z,14.8
2019-04-18T05:11:08.804Z,14.1
2019-04-18T05:12:10.472Z,16
2019-04-18T05:13:09.583Z,16
2019-04-18T05:14:08.918Z,15.2
2019-04-18T05:15:13.644Z,15.4
2019-04-18T05:16:09.160Z,18.4
2019-04-18T05:17:07.847Z,16.1
2019-04-18T05:18:07.870Z,17.9
2019-04-18T05:19:07.863Z,18.299999
2019-04-18T05:20:07.951Z,17.6
2019-04-18T05:21:07.959Z,14.8
2019-04-18T05:22:07.971Z,18.299999
2019-04-18T05:23:07.997Z,17.799999
2019-04-18T05:24:10.113Z,15.6
2019-04-18T05:25:10.795Z,19.4
2019-04-18T05:26:09.049Z,14.1
2019-04-18T05:27:08.058Z,13.8
2019-04-18T05:28:08.068Z,16.5
2019-04-18T05:29:08.110Z,18.299999
2019-04-18T05:30:08.191Z,15.7
2019-04-18T05:31:08.865Z,15.6
2019-04-18T05:32:09.550Z,14
2019-04-18T05:33:11.395Z,16.799999
2019-04-18T05:34:11.087Z,15.2
2019-04-18T05:35:09.937Z,16
2019-04-18T05:36:08.582Z,16
2019-04-18T05:37:13.012Z,14.9
2019-04-18T05:38:10.049Z,15.1
2019-04-18T05:39:08.603Z,13.9
2019-04-18T05:40:08.598Z,16.700001
2019-04-18T05:41:11.088Z,15.5
2019-04-18T05:42:09.978Z,15.3
2019-04-18T05:43:08.828Z,15.7
2019-04-18T05:44:09.052Z,17.700001
2019-04-18T05:45:11.371Z,16.1
2019-04-18T05:46:09.863Z,15.7
2019-04-18T05:47:08.889Z,13.4
2019-04-18T05:48:09.195Z,16.200001
2019-04-18T05:49:09.875Z,14.5
2019-04-18T05:50:10.647Z,17.299999
2019-04-18T05:51:10.129Z,15.2
2019-04-18T05:52:09.141Z,14
2019-04-18T05:53:09.147Z,15.3
2019-04-18T05:54:09.308Z,13.9
2019-04-18T05:55:09.296Z,13.9
2019-04-18T05:56:09.833Z,17
2019-04-18T05:57:09.335Z,14.3
2019-04-18T05:58:09.800Z,18.9
2019-04-18T05:59:13.161Z,18.5
2019-04-18T06:00:10.639Z,19
2019-04-18T06:01:09.630Z,15.3
2019-04-18T06:02:11.328Z,16.6
2019-04-18T06:03:10.780Z,16.4
2019-04-18T06:04:09.764Z,16.6
2019-04-18T06:05:09.919Z,18.1
2019-04-18T06:06:15.073Z,14.8
2019-04-18T06:07:14.917Z,13.2
2019-04-18T06:08:12.053Z,16.200001
2019-04-18T06:09:11.152Z,14.1
2019-04-18T06:10:13.849Z,14.2
2019-04-18T06:11:11.188Z,15.4
2019-04-18T06:12:11.857Z,17.299999
2019-04-18T06:13:11.414Z,14.6
2019-04-18T06:14:10.357Z,18.5
2019-04-18T06:15:11.345Z,16
2019-04-18T06:16:11.404Z,14.9
2019-04-18T06:17:10.415Z,17.6
2019-04-18T06:18:11.054Z,16.5
2019-04-18T06:19:12.090Z,15.3
2019-04-18T06:20:11.577Z,17.1
2019-04-18T06:21:10.802Z,16
2019-04-18T06:22:15.340Z,13.9
2019-04-18T06:23:11.983Z,14.3
2019-04-18T06:24:10.953Z,12.9
2019-04-18T06:25:15.273Z,16.299999
2019-04-18T06:26:12.238Z,14.9
2019-04-18T06:27:11.589Z,16.4
2019-04-18T06:28:15.962Z,14.5
2019-04-18T06:29:12.578Z,14.3
2019-04-18T06:30:11.577Z,15.5
2019-04-18T06:31:13.225Z,14.2
2019-04-18T06:32:12.714Z,16.9
2019-04-18T06:33:11.749Z,12.2
2019-04-18T06:34:12.624Z,17.799999
2019-04-18T06:35:15.104Z,14
2019-04-18T06:36:12.964Z,14.9
2019-04-18T06:37:27.188Z,14.3
2019-04-18T06:38:17.342Z,12.2
2019-04-18T06:39:13.045Z,13.9
2019-04-18T06:40:12.059Z,14.1
2019-04-18T06:41:12.050Z,16.5
2019-04-18T06:42:15.493Z,12.6
2019-04-18T06:43:13.201Z,13.2
2019-04-18T06:44:12.074Z,16.700001
2019-04-18T06:45:12.269Z,15.1
2019-04-18T06:46:16.480Z,13.6
2019-04-18T06:47:13.422Z,13.7
2019-04-18T06:48:12.398Z,12.2
2019-04-18T06:49:13.889Z,13.3
2019-04-18T06:50:13.541Z,13.1
2019-04-18T06:51:12.527Z,12.1
2019-04-18T06:52:12.525Z,13.8
2019-04-18T06:53:13.042Z,13
2019-04-18T06:54:13.534Z,13.8
2019-04-18T06:55:12.519Z,13.3
2019-04-18T06:56:16.930Z,14.5
2019-04-18T06:57:13.821Z,12.4
2019-04-18T06:58:13.291Z,11.6
2019-04-18T06:59:12.875Z,13.4
2019-04-18T07:00:13.060Z,12.7
2019-04-18T07:01:13.494Z,14.3
2019-04-18T07:02:14.315Z,12.9
2019-04-18T07:03:16.946Z,13.6
2019-04-18T07:04:14.052Z,12.8
2019-04-18T07:05:13.034Z,11.9
2019-04-18T07:06:13.102Z,14.3
2019-04-18T07:07:17.497Z,16.1
2019-04-18T07:08:14.091Z,12.2
2019-04-18T07:09:13.107Z,11.9
2019-04-18T07:10:15.043Z,13.3
2019-04-18T07:11:14.226Z,16.9
2019-04-18T07:12:14.096Z,13.5
2019-04-18T07:13:13.626Z,12.9
2019-04-18T07:14:14.691Z,15.6
2019-04-18T07:15:13.645Z,13.7
2019-04-18T07:16:14.243Z,13
2019-04-18T07:17:14.381Z,14.3
2019-04-18T07:18:15.052Z,10.8
2019-04-18T07:19:14.069Z,11.7
2019-04-18T07:20:16.853Z,13.6
2019-04-18T07:21:15.187Z,14.2
2019-04-18T07:22:14.203Z,14.2
2019-04-18T07:23:14.203Z,13
2019-04-18T07:24:14.247Z,12.1
2019-04-18T07:25:14.241Z,12
2019-04-18T07:26:14.231Z,11.5
2019-04-18T07:27:14.266Z,11.6
2019-04-18T07:28:14.289Z,11.9
2019-04-18T07:29:14.325Z,11.2
2019-04-18T07:30:14.307Z,11
2019-04-18T07:31:19.373Z,15.1
2019-04-18T07:32:15.323Z,15
2019-04-18T07:33:14.358Z,14.6
2019-04-18T07:34:14.390Z,12.3
2019-04-18T07:35:14.405Z,13.6
2019-04-18T07:36:14.417Z,12.4
2019-04-18T07:37:16.254Z,12.2
2019-04-18T07:38:15.558Z,10.7
2019-04-18T07:39:14.768Z,13
2019-04-18T07:40:14.775Z,12.8
2019-04-18T07:41:18.484Z,12.3
2019-04-18T07:42:15.781Z,11.6
2019-04-18T07:43:14.818Z,10.4
2019-04-18T07:44:14.845Z,11.2
2019-04-18T07:45:14.859Z,12.7
2019-04-18T07:46:14.869Z,14
2019-04-18T07:47:14.868Z,12
2019-04-18T07:48:14.899Z,13.4
2019-04-18T07:49:14.895Z,13.7
2019-04-18T07:50:14.930Z,10.7
2019-04-18T07:51:14.934Z,12.8
2019-04-18T07:52:15.323Z,11.2
2019-04-18T07:53:16.354Z,10.5
2019-04-18T07:54:15.985Z,10.4
2019-04-18T07:55:15.045Z,12.8
2019-04-18T07:56:16.027Z,14.1
2019-04-18T07:57:16.943Z,11.2
2019-04-18T07:58:16.169Z,12.9
2019-04-18T07:59:18.351Z,10.8
2019-04-18T08:00:16.224Z,12.7
2019-04-18T08:01:15.228Z,11.8
2019-04-18T08:02:15.238Z,13.9
2019-04-18T08:03:15.713Z,10.6
2019-04-18T08:04:16.855Z,13
2019-04-18T08:05:16.362Z,13.7
2019-04-18T08:06:19.818Z,11.8
2019-04-18T08:07:16.900Z,11.1
2019-04-18T08:08:15.386Z,11.6
2019-04-18T08:09:15.425Z,14.1
2019-04-18T08:10:21.087Z,11.4
2019-04-18T08:11:16.587Z,13.8
2019-04-18T08:12:15.605Z,11.3
2019-04-18T08:13:15.658Z,12.3
2019-04-18T08:14:15.640Z,10.9
2019-04-18T08:15:16.092Z,12.8
2019-04-18T08:16:15.766Z,11.8
2019-04-18T08:17:17.235Z,9.8
2019-04-18T08:18:16.902Z,9.3
2019-04-18T08:19:15.945Z,11.2
2019-04-18T08:20:16.152Z,9.4
2019-04-18T08:21:16.630Z,11.9
2019-04-18T08:22:16.086Z,11
2019-04-18T08:23:20.748Z,15.1
2019-04-18T08:24:17.369Z,10.1
2019-04-18T08:25:18.699Z,9.6
2019-04-18T08:26:19.850Z,8.7
2019-04-18T08:27:17.427Z,8.6
2019-04-18T08:28:17.327Z,10
2019-04-18T08:29:25.252Z,9.3
2019-04-18T08:30:23.880Z,8.9
2019-04-18T08:31:17.885Z,9.1
2019-04-18T08:32:16.935Z,10.3
2019-04-18T08:33:16.886Z,8.4
2019-04-18T08:34:19.264Z,10.7
2019-04-18T08:35:17.906Z,9.2
2019-04-18T08:36:16.971Z,9.3
2019-04-18T08:37:21.200Z,10.1
2019-04-18T08:38:18.140Z,10.7
2019-04-18T08:39:17.308Z,9.5
2019-04-18T08:40:17.159Z,8.6
2019-04-18T08:41:17.486Z,12.2
2019-04-18T08:42:17.290Z,8
2019-04-18T08:43:17.294Z,11.1
2019-04-18T08:44:21.831Z,9.5
2019-04-18T08:45:18.820Z,9
2019-04-18T08:46:17.776Z,10.4
2019-04-18T08:47:18.294Z,9.1
2019-04-18T08:48:21.687Z,9.3
2019-04-18T08:49:18.925Z,11.5
2019-04-18T08:50:18.096Z,8.1
2019-04-18T08:51:17.717Z,9.6
2019-04-18T08:52:17.664Z,8.4
2019-04-18T08:53:17.672Z,9.2
2019-04-18T08:54:17.664Z,9.2
2019-04-18T08:55:21.167Z,10.1
2019-04-18T08:56:18.672Z,10
2019-04-18T08:57:17.658Z,9.9
2019-04-18T08:58:17.669Z,11.1
2019-04-18T08:59:17.690Z,9.4
2019-04-18T09:00:17.724Z,9.5
2019-04-18T09:01:18.555Z,10
2019-04-18T09:02:18.772Z,9.9
2019-04-18T09:03:26.572Z,12.3
2019-04-18T09:04:19.345Z,12.5
2019-04-18T09:05:27.009Z,11.3
2019-04-18T09:06:30.291Z,11.2
2019-04-18T09:07:19.898Z,11
2019-04-18T09:08:19.695Z,10.8
2019-04-18T09:09:21.572Z,13.9
2019-04-18T09:10:19.789Z,11.7
2019-04-18T09:11:24.217Z,10.5
2019-04-18T09:12:19.862Z,10.7
2019-04-18T09:13:23.691Z,13.2
2019-04-18T09:14:20.315Z,12.2
2019-04-18T09:15:20.871Z,11.4
2019-04-18T09:16:20.596Z,10.1
2019-04-18T09:17:19.980Z,10.2
2019-04-18T09:18:22.748Z,9.8
2019-04-18T09:19:20.639Z,10.6
2019-04-18T09:20:20.906Z,10.7
2019-04-18T09:21:23.641Z,10.3
2019-04-18T09:22:28.131Z,9.3
2019-04-18T09:23:21.588Z,8.7
2019-04-18T09:24:24.356Z,10.5
2019-04-18T09:25:21.634Z,10.2
2019-04-18T09:26:20.399Z,9.5
2019-04-18T09:27:23.175Z,10.3
2019-04-18T09:28:21.310Z,9.2
2019-04-18T09:29:20.428Z,12.5
2019-04-18T09:30:24.406Z,13.3
2019-04-18T09:31:21.320Z,10.5
2019-04-18T09:32:20.962Z,12.8
2019-04-18T09:33:25.758Z,12.9
2019-04-18T09:34:21.390Z,15.7
2019-04-18T09:35:20.385Z,9.7
2019-04-18T09:36:20.427Z,9.8
2019-04-18T09:37:20.457Z,9.7
2019-04-18T09:38:20.530Z,11.7
2019-04-18T09:39:20.694Z,9.8
2019-04-18T09:40:22.025Z,9.9
2019-04-18T09:41:21.589Z,12.1
2019-04-18T09:42:20.998Z,10.2
2019-04-18T09:43:25.700Z,11.5
2019-04-18T09:44:22.243Z,9.9
2019-04-18T09:45:29.202Z,10.1
2019-04-18T09:46:21.830Z,9.3
2019-04-18T09:47:22.080Z,11.6
2019-04-18T09:48:22.293Z,13.2
2019-04-18T09:49:21.020Z,12.4
2019-04-18T09:50:21.006Z,10.2
2019-04-18T09:51:24.650Z,9.7
2019-04-18T09:52:22.432Z,10.2
2019-04-18T09:53:21.269Z,9.7
2019-04-18T09:54:21.313Z,11
2019-04-18T09:55:21.442Z,13.4
2019-04-18T09:56:21.351Z,9.4
2019-04-18T09:57:21.358Z,12.3
2019-04-18T09:58:21.410Z,9.8
2019-04-18T09:59:21.412Z,9.1
2019-04-18T10:00:24.099Z,10.5
2019-04-18T10:01:22.542Z,12.2
2019-04-18T10:02:27.250Z,8.9
2019-04-18T10:03:22.741Z,11
2019-04-18T10:04:21.572Z,9.6
2019-04-18T10:05:27.206Z,10.3
2019-04-18T10:06:22.811Z,9.2
2019-04-18T10:07:21.816Z,9.5
2019-04-18T10:08:22.840Z,8.9
2019-04-18T10:09:21.879Z,10.6
2019-04-18T10:10:21.921Z,12.2
2019-04-18T10:11:21.895Z,9.5
2019-04-18T10:12:25.340Z,10.7
2019-04-18T10:13:23.175Z,11.4
2019-04-18T10:14:22.231Z,12.4
2019-04-18T10:15:26.765Z,10.7
2019-04-18T10:16:23.831Z,14.8
2019-04-18T10:17:22.395Z,14.3
2019-04-18T10:18:24.777Z,10.7
2019-04-18T10:19:23.431Z,10.1
2019-04-18T10:20:22.462Z,9.1
2019-04-18T10:21:23.143Z,10.7
2019-04-18T10:22:22.636Z,11.9
2019-04-18T10:23:26.897Z,11.3
2019-04-18T10:24:26.900Z,8.1
2019-04-18T10:25:23.686Z,22.9
2019-04-18T10:26:22.677Z,13.8
2019-04-18T10:27:22.693Z,10.7
2019-04-18T10:28:22.719Z,12.2
2019-04-18T10:29:22.762Z,11
2019-04-18T10:30:29.236Z,10
2019-04-18T10:31:23.894Z,8.3
2019-04-18T10:32:23.068Z,9.7
2019-04-18T10:33:23.067Z,10
2019-04-18T10:34:23.065Z,9.8
2019-04-18T10:35:23.092Z,8.5
2019-04-18T10:36:23.704Z,11.6
2019-04-18T10:37:23.122Z,20.9
2019-04-18T10:38:23.124Z,11.2
2019-04-18T10:39:24.791Z,11.1
2019-04-18T10:40:24.187Z,12.7
2019-04-18T10:41:23.221Z,10.3
2019-04-18T10:42:23.264Z,10.9
2019-04-18T10:43:23.298Z,10.1
2019-04-18T10:44:23.386Z,8.2
2019-04-18T10:45:23.389Z,8.8
2019-04-18T10:46:23.391Z,11.1
2019-04-18T10:47:23.428Z,12.8
2019-04-18T10:48:24.442Z,11.7
2019-04-18T10:49:23.493Z,8.7
2019-04-18T10:50:23.492Z,10
2019-04-18T10:51:23.525Z,11.6
2019-04-18T10:52:23.519Z,9.6
2019-04-18T10:53:23.515Z,10.1
2019-04-18T10:54:23.582Z,10
2019-04-18T10:55:27.260Z,9
2019-04-18T10:56:24.591Z,8.8
2019-04-18T10:57:23.587Z,12.7
2019-04-18T10:58:23.626Z,10.4
2019-04-18T10:59:23.704Z,11.8
2019-04-18T11:00:23.725Z,11.5
2019-04-18T11:01:23.743Z,13.2
2019-04-18T11:02:23.762Z,10.7
2019-04-18T11:03:23.814Z,9.5
2019-04-18T11:04:23.834Z,12
2019-04-18T11:05:23.947Z,10.4
2019-04-18T11:06:24.784Z,12.6
2019-04-18T11:07:24.191Z,10.6
2019-04-18T11:08:24.241Z,14
2019-04-18T11:09:24.336Z,10.3
2019-04-18T11:10:27.124Z,19.9
2019-04-18T11:11:25.516Z,11
2019-04-18T11:12:24.614Z,12.7
2019-04-18T11:13:24.715Z,16
2019-04-18T11:14:24.829Z,14.3
2019-04-18T11:15:24.936Z,11.4
2019-04-18T11:16:25.070Z,16.4
2019-04-18T11:17:26.083Z,15.9
2019-04-18T11:18:25.225Z,96.300003
2019-04-18T11:19:25.336Z,105.4
2019-04-18T11:20:25.435Z,51.200001
2019-04-18T11:21:26.600Z,14.5
2019-04-18T11:22:26.602Z,11
2019-04-18T11:23:28.266Z,11.8
2019-04-18T11:24:26.856Z,16.1
2019-04-18T11:25:25.836Z,15
2019-04-18T11:26:25.841Z,12.1
2019-04-18T11:27:25.796Z,16.299999
2019-04-18T11:28:25.918Z,15.8
2019-04-18T11:29:25.953Z,9.7
2019-04-18T11:30:29.273Z,14.5
2019-04-18T11:31:26.990Z,15
2019-04-18T11:32:25.992Z,13.3
2019-04-18T11:33:26.041Z,9.8
2019-04-18T11:34:26.092Z,10.5
2019-04-18T11:35:26.127Z,12.8
2019-04-18T11:36:26.201Z,8.3
2019-04-18T11:37:26.236Z,14.5
2019-04-18T11:38:26.330Z,8.8
2019-04-18T11:39:26.394Z,29
2019-04-18T11:40:29.422Z,19.700001
2019-04-18T11:41:27.541Z,11.4
2019-04-18T11:42:26.555Z,8.5
2019-04-18T11:43:26.591Z,17.1
2019-04-18T11:44:26.650Z,15.6
2019-04-18T11:45:26.729Z,8.6
2019-04-18T11:46:26.777Z,10
2019-04-18T11:47:26.822Z,8.3
2019-04-18T11:48:26.902Z,8
2019-04-18T11:49:26.941Z,8.2
2019-04-18T11:50:26.967Z,8.5
2019-04-18T11:51:27.074Z,10.9
2019-04-18T11:52:27.134Z,10.1
2019-04-18T11:53:27.183Z,8.2
2019-04-18T11:54:27.225Z,10.2
2019-04-18T11:55:27.316Z,10.2
2019-04-18T11:56:30.390Z,9.4
2019-04-18T11:57:28.363Z,9
2019-04-18T11:58:27.379Z,9.4
2019-04-18T11:59:27.449Z,9.3
2019-04-18T12:00:27.455Z,9.2
2019-04-18T12:01:30.825Z,9.4
2019-04-18T12:02:28.626Z,32.900002
2019-04-18T12:03:27.708Z,9
2019-04-18T12:04:27.723Z,9.6
2019-04-18T12:05:27.730Z,9.8
2019-04-18T12:06:27.744Z,9.9
2019-04-18T12:07:27.809Z,9.6
2019-04-18T12:08:27.838Z,9.8
2019-04-18T12:09:27.927Z,37.5
2019-04-18T12:10:27.990Z,17.799999
2019-04-18T12:11:28.086Z,9.8
2019-04-18T12:12:28.136Z,10.9
2019-04-18T12:13:28.263Z,10.6
2019-04-18T12:14:28.330Z,14
2019-04-18T12:15:28.449Z,41
2019-04-18T12:16:28.499Z,8.9
2019-04-18T12:17:28.541Z,11.5
2019-04-18T12:18:28.586Z,10
2019-04-18T12:19:28.651Z,8.9
2019-04-18T12:20:28.665Z,9.3
2019-04-18T12:21:28.712Z,8.8
2019-04-18T12:22:29.660Z,8.4
2019-04-18T12:23:29.847Z,8.8
2019-04-18T12:24:32.657Z,9.1
2019-04-18T12:25:29.896Z,8.4
2019-04-18T12:26:28.944Z,8
2019-04-18T12:27:28.979Z,8.8
2019-04-18T12:28:29.030Z,8.6
2019-04-18T12:29:29.048Z,8.8
2019-04-18T12:30:29.077Z,9.1
2019-04-18T12:31:30.809Z,8
2019-04-18T12:32:30.216Z,10.5
2019-04-18T12:33:29.263Z,8.2
2019-04-18T12:34:29.301Z,10.2
2019-04-18T12:35:29.398Z,9.5
2019-04-18T12:36:29.415Z,10
2019-04-18T12:37:29.469Z,9.5
2019-04-18T12:38:29.682Z,11.1
2019-04-18T12:39:29.464Z,10.6
2019-04-18T12:40:29.569Z,9.5
2019-04-18T12:41:29.635Z,9.9
2019-04-18T12:42:29.679Z,11.2
2019-04-18T12:43:29.798Z,10.2
2019-04-18T12:44:29.846Z,18.299999
2019-04-18T12:45:29.873Z,11
2019-04-18T12:46:30.884Z,9.7
2019-04-18T12:47:29.922Z,8.4
2019-04-18T12:48:29.986Z,10.9
2019-04-18T12:49:30.072Z,8.9
2019-04-18T12:50:30.157Z,8.9
2019-04-18T12:51:30.169Z,8.2
2019-04-18T12:52:30.185Z,9.3
2019-04-18T12:53:30.193Z,9.3
2019-04-18T12:54:30.236Z,9.8
2019-04-18T12:55:30.311Z,10.7
2019-04-18T12:56:30.841Z,9.5
2019-04-18T12:57:30.517Z,8.9
2019-04-18T12:58:30.443Z,11.4
2019-04-18T12:59:30.494Z,9.9
2019-04-18T13:00:30.533Z,9.9
2019-04-18T13:01:45.679Z,9.3
2019-04-18T13:02:31.554Z,7.9
2019-04-18T13:03:30.610Z,10.9
2019-04-18T13:04:30.665Z,7.8
2019-04-18T13:05:30.680Z,7.8
2019-04-18T13:06:30.709Z,10.8
2019-04-18T13:07:30.759Z,8.7
2019-04-18T13:08:30.758Z,8.9
2019-04-18T13:09:30.845Z,7.7
2019-04-18T13:10:30.870Z,8.1
2019-04-18T13:11:30.887Z,7.1
2019-04-18T13:12:30.909Z,7.1
2019-04-18T13:13:34.195Z,9.3
2019-04-18T13:14:32.121Z,7.8
2019-04-18T13:15:31.027Z,8.6
2019-04-18T13:16:31.075Z,9.6
2019-04-18T13:17:31.097Z,9.9